• Join FlightAware (Why Join?)
  • Login
  • US Flag 
05:16AM EDT


 

Airport Tracker/Info


-or-


 

Live Flight TrackerFlight Track Log ✈ N745VJ ✈ 06-May-2013 ✈ KCLT - KSAT

Flight Track Log - Related Links

Times and Time Zones

All times are in EDT time to prevent confusion due to time zone crossing. See the N745VJ flight status page for this flight to view local times or setup timezone preferences in your user account.

Time Position Orientation Groundspeed Altitude Reporting Facility
EDT Latitude Longitude Course Direction KTS MPH feet Rate Location/Type
07:08PM 35.1892 -80.9508 246° West 162 186 1,800  Level Atlanta Center
07:09PM 35.1567 -80.9878 223° Southwest 204 235 3,300 1,920 Climbing Atlanta Center
07:10PM 35.1394 -81.0544 252° West 248 285 5,500 2,100 Climbing Atlanta Center
07:11PM 35.2363 -81.2297 199° South  Level FlightAware Approximate
07:11PM 35.1150 -81.1619 254° West 275 316 7,900  Level Atlanta Center
07:12PM 35.1165 -81.2750 192° South  Level FlightAware Approximate
07:12PM 35.0919 -81.2492 252° West 281 323 10,300  Level Atlanta Center
07:13PM 35.0531 -81.3892 251° West  Level FlightAware Approximate
07:13PM 35.0631 -81.3542 251° West 301 346 12,100  Level Atlanta Center
07:14PM 35.0029 -81.5297 246° West  Level FlightAware Approximate
07:14PM 35.0319 -81.4667 251° West 338 389 14,700  Level Atlanta Center
07:15PM 34.9989 -81.5844 251° West 367 422 17,100 2,100 Climbing Atlanta Center
07:18PM 34.8829 -81.8609 236° Southwest  Level FlightAware Approximate
07:18PM 34.8675 -81.9225 236° Southwest 390 449 23,200  Level Atlanta Center
07:19PM 34.8067 -82.0275 235° Southwest 395 455 25,400 1,800 Climbing Atlanta Center
07:20PM 34.7436 -82.1353 235° Southwest 400 460 26,800 1,200 Climbing Atlanta Center
07:21PM 34.6786 -82.2506 236° Southwest 408 470 27,900 1,200 Climbing Atlanta Center
07:22PM 34.6136 -82.3656 236° Southwest 408 470 29,200 1,080 Climbing Atlanta Center
07:23PM 34.5442 -82.4828 234° Southwest 420 483 30,100 1,200 Climbing Atlanta Center
07:24PM 34.4747 -82.6050 235° Southwest 431 496 31,600 1,260 Climbing Atlanta Center
07:25PM 34.4092 -82.7244 236° Southwest 431 496 32,700 1,200 Climbing Atlanta Center
07:26PM 34.3394 -82.8414 234° Southwest 431 496 34,000 1,080 Climbing Atlanta Center
07:27PM 34.2717 -82.9578 235° Southwest 431 496 34,900 960 Climbing Atlanta Center
07:28PM 34.2036 -83.0742 235° Southwest 431 496 36,000 240 Climbing Atlanta Center
07:30PM 34.1221 -83.1965 234° Southwest  Level FlightAware Approximate
07:31PM 33.9911 -83.4350 235° Southwest 431 496 36,000  Level Atlanta Center
07:33PM 33.8500 -83.6736 235° Southwest 431 496 36,000  Level Atlanta Center
07:34PM 33.7814 -83.7914 235° Southwest 436 502 36,000  Level Atlanta Center
07:35PM 33.7106 -83.9064 234° Southwest 436 502 36,000  Level Atlanta Center
07:36PM 33.6378 -84.0264 234° Southwest 436 502 36,000  Level Atlanta Center
07:37PM 33.6067 -84.0543 235° Southwest  Level FlightAware Approximate
07:37PM 33.5772 -84.1336 236° Southwest 436 502 36,000  Level Atlanta Center
07:38PM 33.5061 -84.2481 233° Southwest 436 502 36,000  Level Atlanta Center
07:39PM 33.4369 -84.3625 234° Southwest 431 496 36,000  Level Atlanta Center
07:40PM 33.3678 -84.4767 234° Southwest 431 496 36,000  Level Atlanta Center
07:41PM 33.2919 -84.6031 234° Southwest 431 496 36,000  Level Atlanta Center
07:42PM 33.2225 -84.7192 234° Southwest 431 496 36,000  Level Atlanta Center
07:43PM 33.1531 -84.8328 234° Southwest 431 496 36,000  Level Atlanta Center
07:44PM 33.0811 -84.9461 233° Southwest 431 496 36,000  Level Atlanta Center
07:45PM 33.0136 -85.0569 234° Southwest 431 496 36,000  Level Atlanta Center
07:47PM 32.9402 -85.1602 230° Southwest  Level FlightAware Approximate
07:47PM 32.8739 -85.2781 230° Southwest 426 490 36,000  Level Atlanta Center
07:49PM 32.7985 -85.3797 234° Southwest  Level FlightAware Approximate
07:49PM 32.7356 -85.5033 234° Southwest 432 497 36,000  Level Atlanta Center
07:50PM 32.6653 -85.6181 234° Southwest 432 497 36,000  Level Atlanta Center
07:51PM 32.5950 -85.7300 233° Southwest 432 497 36,000  Level Atlanta Center
07:52PM 32.5244 -85.8397 233° Southwest 432 497 36,000  Level Atlanta Center
07:53PM 32.4625 -85.9442 235° Southwest 432 497 36,000  Level Atlanta Center
07:54PM 32.3897 -86.0533 232° Southwest 427 491 36,000  Level Atlanta Center
07:55PM 32.3192 -86.1625 233° Southwest 427 491 36,100 480 Climbing Atlanta Center
07:57PM 32.1772 -86.3847 233° Southwest 432 497 37,500 600 Climbing Atlanta Center
07:58PM 32.1019 -86.5006 233° Southwest 427 491 38,000 180 Climbing Atlanta Center
08:00PM 31.9864 -86.6597 229° Southwest 413 475 38,000  Level Houston Center
08:00PM 31.9539 -86.6947 222° Southwest 417 480 38,000  Level Atlanta Center
08:01PM 31.8808 -86.7978 230° Southwest 422 486 38,000  Level Atlanta Center
08:02PM 31.8053 -86.9006 229° Southwest 422 486 38,000  Level Atlanta Center
08:03PM 31.7278 -87.0031 228° Southwest 422 486 38,000  Level Atlanta Center
08:04PM 31.6497 -87.1200 232° Southwest 422 486 38,000  Level Atlanta Center
08:06PM 31.5244 -87.2839 228° Southwest 416 479 38,000  Level Houston Center
08:07PM 31.4328 -87.4072 229° Southwest 417 480 38,100  Climbing Houston Center
08:08PM 31.3581 -87.5083 229° Southwest 412 474 38,000 -60 Descending Houston Center
08:09PM 31.2853 -87.6086 230° Southwest 407 468 38,000 -60 Level Houston Center
08:10PM 31.2156 -87.7017 229° Southwest 408 470 37,900  Descending Houston Center
08:11PM 31.1264 -87.8214 229° Southwest 408 470 38,000  Climbing Houston Center
08:12PM 31.0528 -87.9217 229° Southwest 408 470 38,000 -60 Level Houston Center
08:13PM 30.9775 -88.0222 229° Southwest 411 473 37,900  Descending Houston Center
08:15PM 30.9011 -88.1228 228° Southwest 414 476 38,000  Climbing Houston Center
08:16PM 30.8247 -88.2231 228° Southwest 414 476 38,000  Level Houston Center
08:17PM 30.7542 -88.3242 231° Southwest 405 466 38,000 -60 Level Houston Center
08:18PM 30.7178 -88.4400 250° West 384 442 37,900  Descending Houston Center
08:20PM 30.6994 -88.6837 265° West  Level FlightAware Approximate
08:21PM 30.6900 -88.8211 265° West 379 436 38,000  Level Houston Center
08:23PM 30.6725 -89.0714 265° West 382 440 38,000  Level Houston Center
08:24PM 30.6650 -89.1925 266° West 377 434 38,000 -60 Level Houston Center
08:25PM 30.6517 -89.3394 264° West 383 441 37,900  Descending Houston Center
08:26PM 30.6431 -89.4617 265° West 383 441 38,000  Climbing Houston Center
08:27PM 30.6347 -89.5842 266° West 382 440 38,000  Level Houston Center
08:28PM 30.6250 -89.7069 265° West 384 442 38,000  Level Houston Center
08:30PM 30.6011 -89.9733 264° West 381 438 38,000  Level Houston Center
08:31PM 30.5908 -90.0958 264° West 383 441 38,000  Level Houston Center
08:32PM 30.5806 -90.2183 264° West 383 441 38,000  Level Houston Center
08:33PM 30.5700 -90.3403 264° West 384 442 38,000 -60 Level Houston Center
08:34PM 30.5600 -90.4636 265° West 384 442 37,900  Descending Houston Center
08:36PM 30.5353 -90.7322 264° West 382 440 38,000  Climbing Houston Center
08:37PM 30.5261 -90.8561 265° West 385 443 38,000  Level Houston Center
08:38PM 30.5136 -90.9792 263° West 385 443 38,000  Level Houston Center
08:39PM 30.5033 -91.1000 264° West 381 438 38,000  Level Houston Center
08:40PM 30.4925 -91.2217 264° West 380 437 38,000  Level Houston Center
08:42PM 30.4653 -91.3785 258° West  Level FlightAware Approximate
08:42PM 30.4561 -91.4631 258° West 379 436 38,000  Level Houston Center
08:43PM 30.4289 -91.6078 258° West 382 440 37,900  Descending Houston Center
08:44PM 30.4036 -91.7275 256° West 379 436 38,000  Climbing Houston Center
08:45PM 30.3817 -91.8483 258° West 382 440 38,000  Level Houston Center
08:46PM 30.3589 -91.9683 258° West 380 437 38,000  Level Houston Center
08:48PM 30.3232 -92.1009 257° West  Level FlightAware Approximate
08:48PM 30.3144 -92.2072 257° West 378 435 38,000  Level Houston Center
08:49PM 30.2914 -92.3267 257° West 379 436 38,000  Level Houston Center
08:51PM 30.2667 -92.4547 257° West 380 437 38,000  Level Houston Center
08:52PM 30.2442 -92.5756 258° West 383 441 38,000  Level Houston Center
08:53PM 30.2208 -92.6942 257° West 381 438 38,000 -60 Level Houston Center
08:54PM 30.1975 -92.8131 257° West 378 435 37,900  Descending Houston Center
08:55PM 30.1703 -92.9539 257° West 374 430 38,000  Climbing Houston Center
08:56PM 30.1469 -93.0739 257° West 379 436 37,900 -60 Descending Houston Center
08:57PM 30.1339 -93.1933 263° West 374 430 37,900  Level Houston Center
08:58PM 30.1256 -93.3133 265° West 373 429 38,000  Climbing Houston Center
08:59PM 30.1158 -93.4328 265° West 371 427 38,000  Level Houston Center
09:01PM 30.0964 -93.6540 264° West  Level FlightAware Approximate
09:02PM 30.0875 -93.7967 264° West 378 435 38,000  Level Houston Center
09:03PM 30.0783 -93.9200 265° West 383 441 38,000  Level Houston Center
09:04PM 30.0692 -94.0414 265° West 380 437 38,000 -60 Level Houston Center
09:06PM 30.0472 -94.3036 265° West 372 428 37,900  Descending Houston Center
09:08PM 30.0278 -94.5344 265° West 369 425 38,000  Climbing Houston Center
09:09PM 30.0175 -94.6525 264° West 371 427 38,000  Level Houston Center
09:11PM 29.9958 -94.8418 263° West  Level FlightAware Approximate
09:11PM 29.9975 -94.8911 263° West 375 432 38,000  Level Houston Center
09:12PM 29.9853 -95.0364 264° West 382 440 38,000  Level Houston Center
09:13PM 29.9739 -95.1572 264° West 382 440 38,000  Level Houston Center
09:14PM 29.9631 -95.2764 264° West 380 437 38,000  Level Houston Center
09:15PM 29.9492 -95.3958 262° West 380 437 38,000  Level Houston Center
09:16PM 29.9225 -95.5139 255° West 382 440 38,000  Level Houston Center
09:18PM 29.8853 -95.6784 255° West  Level FlightAware Approximate
09:18PM 29.8722 -95.7506 255° West 381 438 38,000  Level Houston Center
09:20PM 29.8340 -95.9084 256° West  Level FlightAware Approximate
09:20PM 29.8597 -96.0194 256° West 386 444 38,000  Level Houston Center
09:22PM 29.8404 -96.1754 249° West  Level Estimated
09:22PM 29.8658 -96.2600 249° West 387 445 37,900  Level Houston Center
09:23PM 29.8683 -96.3825 271° West 383 441 37,200 -960 Descending Houston Center
09:24PM 29.8711 -96.5039 272° West 381 438 36,000 -1,500 Descending Houston Center
09:25PM 29.8753 -96.6475 272° West 377 434 34,200 -1,740 Descending Houston Center
09:26PM 29.8778 -96.7722 271° West 389 448 32,500 -2,040 Descending Houston Center
09:27PM 29.8806 -96.9025 271° West 406 467 30,100 -2,400 Descending Houston Center
09:28PM 29.8836 -97.0322 272° West 408 470 27,700 -2,460 Descending Houston Center
09:29PM 29.8864 -97.1586 271° West 399 459 25,200 -2,460 Descending Houston Center
09:31PM 29.8591 -97.2897 257° West  Level FlightAware Approximate
09:31PM 29.8903 -97.3989 221° Southwest 373 429 20,300  Level Houston Center
09:32PM 29.8919 -97.5383 271° West 367 422 16,700 -3,000 Descending Houston Center
09:34PM 29.8936 -97.6514 271° West 350 403 14,300 -2,460 Descending Houston Center
09:34PM 29.8942 -97.6839 271° West 347 399 13,500 -1,020 Descending Houston Center
09:35PM 29.8964 -97.7944 271° West 340 391 13,000 -540 Descending Houston Center
09:36PM 29.8944 -97.8756 268° West 334 384 12,600 -1,260 Descending Houston Center
09:37PM 29.8528 -97.9647 242° Southwest 314 361 10,800 -1,500 Descending Houston Center
09:37PM 29.8453 -97.9842 246° West 306 352 10,700 -960 Descending Houston Center
09:38PM 29.7484 -98.1016 221° Southwest  Level FlightAware Approximate
09:38PM 29.8131 -98.0628 245° Southwest 265 305 9,600  Level Houston Center
09:39PM 29.7875 -98.1217 243° Southwest 268 308 8,100 -2,100 Descending Houston Center
09:39PM 29.7767 -98.1467 243° Southwest 265 305 7,500 -1,680 Descending Houston Center
09:40PM 29.7442 -98.2256 245° Southwest 281 323 6,000 -900 Descending Houston Center
09:41PM 29.7256 -98.2897 252° West 272 313 6,000  Level Houston Center
09:41PM 29.7228 -98.3100 261° West 270 311 6,000  Level Houston Center
09:42PM 29.7072 -98.3717 254° West 266 306 6,000 -120 Level Houston Center
09:42PM 29.7047 -98.3892 261° West 261 300 5,900 -600 Descending Houston Center
09:43PM 29.6925 -98.4467 256° West 244 281 5,400 -1,080 Descending Houston Center
09:44PM 29.6756 -98.5228 256° West 227 261 4,000 -1,380 Descending Houston Center